Time;durP1;ratioP1;P1;durP2;ratioP2;P2;SDS_P1;SDS_P2;PMS_P1;PMS_P2;Temp;Humidity;BMP_temperature;BMP_pressure;BME280_temperature;BME280_humidity;BME280_pressure;Samples;Min_cycle;Max_cycle;Signal;HPM_P1;HPM_P2
2023/06/28 00:00:12;;;;;;;;;1.25;1.00;;;;;;;;5075135;28;45360;-66
2023/06/28 00:02:37;;;;;;;;;1.00;1.00;;;;;;;;5075119;28;45379;-67
2023/06/28 00:05:03;;;;;;;;;1.00;1.00;;;;;;;;5056881;28;46236;-66
2023/06/28 00:07:29;;;;;;;;;2.00;2.00;;;;;;;;5057076;28;45396;-67
2023/06/28 00:09:54;;;;;;;;;1.25;1.25;;;;;;;;5075375;28;45410;-67
2023/06/28 00:12:21;;;;;;;;;2.25;2.00;;;;;;;;5075115;28;45363;-68
2023/06/28 00:14:46;;;;;;;;;1.75;1.75;;;;;;;;5075018;28;46263;-67
2023/06/28 00:17:11;;;;;;;;;1.25;1.25;;;;;;;;5074388;28;45236;-67
2023/06/28 00:19:36;;;;;;;;;1.00;1.00;;;;;;;;5075601;28;45302;-67
2023/06/28 00:22:02;;;;;;;;;1.25;1.25;;;;;;;;5060147;28;45460;-67
2023/06/28 00:24:27;;;;;;;;;2.50;1.50;;;;;;;;5077767;27;47000;-67
2023/06/28 00:26:52;;;;;;;;;2.00;2.00;;;;;;;;5078255;28;45405;-67
2023/06/28 00:29:17;;;;;;;;;1.75;1.00;;;;;;;;5077938;28;45398;-67
2023/06/28 00:31:43;;;;;;;;;2.00;2.00;;;;;;;;5078146;28;45232;-66
2023/06/28 00:34:08;;;;;;;;;1.50;1.50;;;;;;;;5078049;27;45626;-67
2023/06/28 00:36:33;;;;;;;;;3.00;2.00;;;;;;;;5078302;27;45391;-67
2023/06/28 00:38:58;;;;;;;;;1.00;1.00;;;;;;;;5078762;28;45333;-67
2023/06/28 00:41:24;;;;;;;;;2.75;2.50;;;;;;;;5060385;28;45544;-67
2023/06/28 00:43:49;;;;;;;;;2.25;2.25;;;;;;;;5078263;27;46198;-67
2023/06/28 00:46:14;;;;;;;;;1.00;1.00;;;;;;;;5078029;28;45612;-66
2023/06/28 00:48:40;;;;;;;;;3.00;1.00;;;;;;;;5060004;28;45347;-67
2023/06/28 00:51:06;;;;;;;;;1.00;1.00;;;;;;;;5078201;27;45354;-67
2023/06/28 00:53:31;;;;;;;;;1.50;1.50;;;;;;;;5077760;27;46244;-67
2023/06/28 00:55:57;;;;;;;;;3.50;1.50;;;;;;;;5077014;27;45597;-67
2023/06/28 00:58:23;;;;;;;;;2.00;1.25;;;;;;;;5077170;27;45573;-66
2023/06/28 01:00:49;;;;;;;;;1.50;1.50;;;;;;;;5077698;28;45630;-67
2023/06/28 01:03:17;;;;;;;;;4.00;2.25;;;;;;;;5077683;27;46440;-67
2023/06/28 01:05:43;;;;;;;;;1.00;1.00;;;;;;;;5078281;28;45382;-67
2023/06/28 01:08:09;;;;;;;;;1.00;1.00;;;;;;;;5077543;27;45418;-67
2023/06/28 01:10:36;;;;;;;;;2.00;1.00;;;;;;;;5077686;28;45411;-67
2023/06/28 01:13:02;;;;;;;;;1.50;1.50;;;;;;;;5077537;28;46452;-67
2023/06/28 01:15:27;;;;;;;;;1.00;1.00;;;;;;;;5077131;28;45410;-67
2023/06/28 01:17:53;;;;;;;;;0.75;0.75;;;;;;;;5077628;27;45426;-67
2023/06/28 01:20:18;;;;;;;;;2.00;1.00;;;;;;;;5077564;28;45497;-67
2023/06/28 01:22:50;;;;;;;;;1.50;1.50;;;;;;;;5077418;28;46270;-67
2023/06/28 01:25:16;;;;;;;;;1.25;1.25;;;;;;;;5077431;28;45533;-67
2023/06/28 01:27:44;;;;;;;;;1.00;1.00;;;;;;;;5077355;27;45535;-67
2023/06/28 01:30:12;;;;;;;;;1.50;1.50;;;;;;;;5076545;27;45303;-66
2023/06/28 01:32:37;;;;;;;;;1.75;1.00;;;;;;;;5077279;28;46481;-67
2023/06/28 01:35:03;;;;;;;;;1.25;1.25;;;;;;;;5076948;28;45569;-67
2023/06/28 01:37:28;;;;;;;;;1.25;1.25;;;;;;;;5077249;28;45415;-67
2023/06/28 01:39:53;;;;;;;;;2.75;1.00;;;;;;;;5077599;28;45623;-65
2023/06/28 01:42:19;;;;;;;;;1.50;1.50;;;;;;;;5075972;28;45957;-67
2023/06/28 01:44:44;;;;;;;;;3.00;2.00;;;;;;;;5077059;27;45343;-67
2023/06/28 01:47:09;;;;;;;;;2.25;2.25;;;;;;;;5076842;28;45449;-67
2023/06/28 01:49:36;;;;;;;;;2.00;2.00;;;;;;;;5077472;27;45395;-67
2023/06/28 01:52:02;;;;;;;;;2.00;1.25;;;;;;;;5077207;28;45492;-67
2023/06/28 01:54:28;;;;;;;;;1.75;1.00;;;;;;;;5077022;28;45513;-67
2023/06/28 01:56:54;;;;;;;;;5.25;2.50;;;;;;;;5077425;28;45328;-67
2023/06/28 01:59:19;;;;;;;;;4.00;2.50;;;;;;;;5058854;28;45267;-67
2023/06/28 02:01:44;;;;;;;;;0.75;0.75;;;;;;;;5077098;28;45403;-67
2023/06/28 02:04:10;;;;;;;;;1.25;1.25;;;;;;;;5077100;28;45315;-67
2023/06/28 02:06:38;;;;;;;;;2.00;1.00;;;;;;;;5076815;28;45375;-67
2023/06/28 02:09:03;;;;;;;;;0.75;0.75;;;;;;;;5077341;27;45385;-67
2023/06/28 02:11:28;;;;;;;;;2.00;2.00;;;;;;;;5074125;28;45395;-67
2023/06/28 02:13:53;;;;;;;;;1.75;1.75;;;;;;;;5058013;28;45514;-66
2023/06/28 02:16:22;;;;;;;;;2.00;2.00;;;;;;;;5076827;27;45390;-66
2023/06/28 02:18:49;;;;;;;;;2.50;1.50;;;;;;;;5076675;28;45462;-65
2023/06/28 02:21:14;;;;;;;;;2.75;2.00;;;;;;;;5076487;28;45450;-67
2023/06/28 02:23:39;;;;;;;;;2.75;2.75;;;;;;;;5076845;27;45351;-67
2023/06/28 02:26:05;;;;;;;;;1.75;1.75;;;;;;;;5058467;28;45664;-67
2023/06/28 02:28:30;;;;;;;;;4.00;1.00;;;;;;;;5076052;28;45406;-67
2023/06/28 02:30:55;;;;;;;;;5.00;3.00;;;;;;;;5076318;28;46195;-67
2023/06/28 02:33:20;;;;;;;;;4.25;2.50;;;;;;;;5076340;27;45413;-67
2023/06/28 02:35:46;;;;;;;;;2.25;2.25;;;;;;;;5076622;28;45381;-66
2023/06/28 02:38:11;;;;;;;;;4.00;2.50;;;;;;;;5076087;27;45431;-67
2023/06/28 02:40:36;;;;;;;;;3.25;3.00;;;;;;;;5075984;28;46425;-67
2023/06/28 02:43:01;;;;;;;;;2.25;2.25;;;;;;;;5057114;28;45387;-67
2023/06/28 02:45:27;;;;;;;;;7.00;7.00;;;;;;;;5076117;28;45371;-67
2023/06/28 02:47:52;;;;;;;;;4.00;4.00;;;;;;;;5076079;27;45489;-67
2023/06/28 02:50:17;;;;;;;;;6.25;6.25;;;;;;;;5075535;28;45491;-67
2023/06/28 02:52:42;;;;;;;;;6.50;6.50;;;;;;;;5075325;28;45629;-67
2023/06/28 02:55:09;;;;;;;;;11.00;8.50;;;;;;;;5057593;28;45344;-67
2023/06/28 02:57:34;;;;;;;;;9.25;7.25;;;;;;;;5075583;28;45617;-67
2023/06/28 02:59:59;;;;;;;;;6.00;5.25;;;;;;;;5075040;28;46383;-67
2023/06/28 03:02:24;;;;;;;;;7.00;6.00;;;;;;;;5075016;27;45304;-67
2023/06/28 03:04:49;;;;;;;;;5.25;4.50;;;;;;;;5056976;28;45385;-67
2023/06/28 03:07:15;;;;;;;;;6.00;5.00;;;;;;;;5075034;27;45365;-67
2023/06/28 03:09:40;;;;;;;;;4.50;4.50;;;;;;;;5075433;27;45442;-67
2023/06/28 03:12:06;;;;;;;;;3.00;2.00;;;;;;;;5075990;28;45398;-67
2023/06/28 03:14:31;;;;;;;;;2.00;2.00;;;;;;;;5076304;28;45553;-67
2023/06/28 03:16:56;;;;;;;;;4.50;3.25;;;;;;;;5076286;28;45320;-67
2023/06/28 03:19:21;;;;;;;;;5.00;3.75;;;;;;;;5075830;27;46942;-67
2023/06/28 03:21:47;;;;;;;;;2.00;2.00;;;;;;;;5075826;28;45504;-67
2023/06/28 03:24:12;;;;;;;;;4.00;4.00;;;;;;;;5076373;28;45497;-67
2023/06/28 03:26:37;;;;;;;;;2.00;2.00;;;;;;;;5057503;28;45480;-67
2023/06/28 03:29:02;;;;;;;;;4.25;3.00;;;;;;;;5057582;28;46521;-67
2023/06/28 03:31:27;;;;;;;;;2.00;2.00;;;;;;;;5075325;28;45403;-67
2023/06/28 03:33:53;;;;;;;;;2.00;2.00;;;;;;;;5076002;28;45346;-67
2023/06/28 03:36:19;;;;;;;;;3.75;2.00;;;;;;;;5075980;28;45324;-67
2023/06/28 03:38:44;;;;;;;;;1.75;1.75;;;;;;;;5075484;28;45390;-67
2023/06/28 03:41:09;;;;;;;;;3.00;3.00;;;;;;;;5056765;28;45344;-67
2023/06/28 03:43:34;;;;;;;;;5.00;3.00;;;;;;;;5075374;28;45330;-67
2023/06/28 03:45:59;;;;;;;;;4.25;3.00;;;;;;;;5075482;28;45592;-67
2023/06/28 03:48:25;;;;;;;;;6.50;4.00;;;;;;;;5075554;28;47077;-67
2023/06/28 03:50:50;;;;;;;;;3.25;2.25;;;;;;;;5075634;28;45311;-67
2023/06/28 03:53:16;;;;;;;;;3.00;3.00;;;;;;;;5056897;28;45461;-67
2023/06/28 03:55:41;;;;;;;;;1.25;1.25;;;;;;;;5074055;28;45427;-67
2023/06/28 03:58:06;;;;;;;;;1.00;1.00;;;;;;;;5074499;28;46281;-67
2023/06/28 04:00:31;;;;;;;;;2.00;1.00;;;;;;;;5074826;28;45311;-67
2023/06/28 04:02:57;;;;;;;;;2.00;2.00;;;;;;;;5074900;28;45382;-67
2023/06/28 04:05:22;;;;;;;;;2.50;1.25;;;;;;;;5075000;28;45287;-67
2023/06/28 04:07:54;;;;;;;;;3.50;2.25;;;;;;;;5073857;28;46503;-67
2023/06/28 04:10:19;;;;;;;;;2.50;2.00;;;;;;;;5074954;28;45401;-68
2023/06/28 04:12:44;;;;;;;;;2.00;2.00;;;;;;;;5090384;27;45756;-67
2023/06/28 04:15:10;;;;;;;;;2.00;2.00;;;;;;;;5075288;28;45430;-67
2023/06/28 04:17:35;;;;;;;;;3.25;2.00;;;;;;;;5074763;28;47098;-67
2023/06/28 04:20:01;;;;;;;;;2.75;2.75;;;;;;;;5074685;28;45464;-68
2023/06/28 04:22:26;;;;;;;;;2.25;2.25;;;;;;;;5074698;28;45348;-68
2023/06/28 04:24:51;;;;;;;;;1.75;1.75;;;;;;;;5074335;28;45419;-68
2023/06/28 04:27:16;;;;;;;;;3.75;2.00;;;;;;;;5074477;28;45394;-67
2023/06/28 04:29:41;;;;;;;;;4.50;3.00;;;;;;;;5074871;28;45662;-67
2023/06/28 04:32:21;;;;;;;;;2.75;2.75;;;;;;;;5075049;28;45378;-67
2023/06/28 04:34:47;;;;;;;;;1.50;1.50;;;;;;;;5075005;28;45414;-67
2023/06/28 04:37:12;;;;;;;;;1.00;1.00;;;;;;;;5074853;28;47043;-67
2023/06/28 04:39:38;;;;;;;;;2.25;2.25;;;;;;;;5074381;28;45475;-69
2023/06/28 04:42:03;;;;;;;;;3.00;3.00;;;;;;;;5075130;28;45424;-68
2023/06/28 04:44:36;;;;;;;;;2.25;2.25;;;;;;;;5074774;28;45513;-69
2023/06/28 04:47:02;;;;;;;;;2.25;2.25;;;;;;;;5074536;28;47455;-69
2023/06/28 04:49:27;;;;;;;;;3.50;2.00;;;;;;;;5074102;28;45360;-69
2023/06/28 04:51:53;;;;;;;;;5.00;2.25;;;;;;;;5074676;28;45399;-68
2023/06/28 04:54:19;;;;;;;;;4.75;2.00;;;;;;;;5039696;28;45629;-68
2023/06/28 04:56:45;;;;;;;;;4.25;3.75;;;;;;;;5074589;28;46604;-68
2023/06/28 04:59:10;;;;;;;;;3.00;3.00;;;;;;;;5074571;28;45318;-68
2023/06/28 05:01:37;;;;;;;;;2.00;2.00;;;;;;;;5074707;28;45414;-68
2023/06/28 05:04:02;;;;;;;;;2.00;2.00;;;;;;;;5074372;28;45186;-69
2023/06/28 05:06:28;;;;;;;;;2.00;2.00;;;;;;;;5075728;28;46429;-69
2023/06/28 05:08:53;;;;;;;;;3.25;2.00;;;;;;;;5078055;28;45646;-69
2023/06/28 05:11:19;;;;;;;;;2.50;2.25;;;;;;;;5077900;28;45526;-69
2023/06/28 05:13:44;;;;;;;;;1.00;1.00;;;;;;;;5078311;27;45444;-69
2023/06/28 05:16:09;;;;;;;;;2.00;2.00;;;;;;;;5077992;28;46018;-68
2023/06/28 05:18:34;;;;;;;;;2.00;1.00;;;;;;;;5058984;28;45403;-69
2023/06/28 05:20:59;;;;;;;;;2.00;2.00;;;;;;;;5077423;28;45514;-69
2023/06/28 05:23:25;;;;;;;;;3.75;3.00;;;;;;;;5059956;28;45498;-69
2023/06/28 05:25:50;;;;;;;;;3.00;2.25;;;;;;;;5077778;27;46069;-68
2023/06/28 05:28:16;;;;;;;;;4.00;4.00;;;;;;;;5077419;27;45378;-68
2023/06/28 05:30:42;;;;;;;;;2.25;2.00;;;;;;;;5059384;28;45479;-69
2023/06/28 05:33:08;;;;;;;;;4.75;2.25;;;;;;;;5077590;28;45425;-69
2023/06/28 05:35:34;;;;;;;;;3.25;2.00;;;;;;;;5059225;28;47510;-69
2023/06/28 05:38:02;;;;;;;;;3.00;3.00;;;;;;;;5077150;27;45425;-69
2023/06/28 05:40:28;;;;;;;;;3.00;3.00;;;;;;;;5077662;28;45374;-69
2023/06/28 05:42:53;;;;;;;;;2.00;2.00;;;;;;;;5058627;28;45559;-69
2023/06/28 05:45:22;;;;;;;;;2.75;2.25;;;;;;;;5077420;28;46363;-69
2023/06/28 05:47:47;;;;;;;;;1.00;1.00;;;;;;;;5077586;27;45425;-68
2023/06/28 05:50:12;;;;;;;;;0.75;0.75;;;;;;;;5077159;28;45378;-69
2023/06/28 05:52:38;;;;;;;;;2.00;2.00;;;;;;;;5077134;27;45311;-69
2023/06/28 05:55:03;;;;;;;;;3.25;2.50;;;;;;;;5077000;28;45526;-68
2023/06/28 05:57:28;;;;;;;;;3.25;3.25;;;;;;;;5077049;28;45349;-68
2023/06/28 05:59:54;;;;;;;;;3.00;3.00;;;;;;;;5077042;28;45507;-68
2023/06/28 06:02:19;;;;;;;;;1.50;1.00;;;;;;;;5077200;27;45311;-69
2023/06/28 06:04:44;;;;;;;;;3.00;1.50;;;;;;;;5076614;28;45388;-69
2023/06/28 06:07:09;;;;;;;;;3.50;2.00;;;;;;;;5058976;28;45485;-69
2023/06/28 06:09:34;;;;;;;;;2.00;2.00;;;;;;;;5058613;28;45394;-69
2023/06/28 06:12:00;;;;;;;;;2.00;2.00;;;;;;;;5075321;27;45455;-69
2023/06/28 06:14:25;;;;;;;;;2.00;2.00;;;;;;;;5077064;28;45434;-68
2023/06/28 06:16:50;;;;;;;;;5.00;3.50;;;;;;;;5075986;28;45307;-68
2023/06/28 06:19:15;;;;;;;;;3.75;1.50;;;;;;;;5076200;27;45356;-68
2023/06/28 06:21:40;;;;;;;;;3.75;2.25;;;;;;;;5076154;28;45538;-68
2023/06/28 06:24:08;;;;;;;;;3.50;2.75;;;;;;;;5076443;28;47017;-68
2023/06/28 06:26:35;;;;;;;;;2.25;2.25;;;;;;;;5075934;28;45331;-68
2023/06/28 06:29:00;;;;;;;;;2.25;2.25;;;;;;;;5076044;28;45461;-69
2023/06/28 06:31:25;;;;;;;;;1.00;0.00;;;;;;;;5076507;27;45410;-69
2023/06/28 06:33:50;;;;;;;;;3.75;3.75;;;;;;;;5076280;28;46481;-69
2023/06/28 06:36:15;;;;;;;;;3.00;1.75;;;;;;;;5076338;28;45406;-69
2023/06/28 06:38:41;;;;;;;;;1.75;1.75;;;;;;;;5076574;27;45307;-69
2023/06/28 06:41:06;;;;;;;;;4.00;3.00;;;;;;;;5076696;28;45367;-69
2023/06/28 06:43:31;;;;;;;;;2.00;2.00;;;;;;;;5075479;28;47065;-69
2023/06/28 06:45:57;;;;;;;;;3.75;2.00;;;;;;;;5075848;28;45446;-70
2023/06/28 06:48:22;;;;;;;;;3.50;2.00;;;;;;;;5057482;28;45398;-69
2023/06/28 06:50:48;;;;;;;;;2.25;2.00;;;;;;;;5076593;27;45387;-70
2023/06/28 06:53:13;;;;;;;;;2.75;2.00;;;;;;;;5076021;28;45380;-69
2023/06/28 06:55:38;;;;;;;;;2.50;2.50;;;;;;;;5075075;28;45594;-69
2023/06/28 06:58:03;;;;;;;;;4.50;2.00;;;;;;;;5075410;28;45430;-68
2023/06/28 07:00:29;;;;;;;;;3.00;3.00;;;;;;;;5075914;28;45461;-69
2023/06/28 07:02:54;;;;;;;;;3.75;2.25;;;;;;;;5075762;28;46770;-69
2023/06/28 07:05:19;;;;;;;;;1.00;1.00;;;;;;;;5057452;28;45880;-69
2023/06/28 07:07:44;;;;;;;;;5.25;3.00;;;;;;;;5076194;28;45304;-68
2023/06/28 07:10:09;;;;;;;;;1.00;1.00;;;;;;;;5075661;28;45402;-69
2023/06/28 07:12:35;;;;;;;;;3.00;2.00;;;;;;;;5057362;28;46407;-69
2023/06/28 07:15:00;;;;;;;;;6.25;2.00;;;;;;;;5076139;28;45356;-69
2023/06/28 07:17:25;;;;;;;;;2.00;2.00;;;;;;;;5057732;28;45385;-68
2023/06/28 07:19:51;;;;;;;;;4.00;2.00;;;;;;;;5076005;28;45449;-68
2023/06/28 07:22:16;;;;;;;;;3.00;2.00;;;;;;;;5074296;27;47165;-68
2023/06/28 07:24:41;;;;;;;;;1.00;1.00;;;;;;;;5075368;27;45347;-68
2023/06/28 07:27:06;;;;;;;;;2.75;2.75;;;;;;;;5075925;28;45398;-68
2023/06/28 07:29:32;;;;;;;;;1.25;1.00;;;;;;;;5075419;28;45444;-68
2023/06/28 07:31:57;;;;;;;;;4.50;3.25;;;;;;;;5056170;28;46396;-68
2023/06/28 07:34:22;;;;;;;;;3.50;3.50;;;;;;;;5075211;28;45323;-68
2023/06/28 07:36:48;;;;;;;;;2.50;2.50;;;;;;;;5076038;28;45437;-68
2023/06/28 07:39:13;;;;;;;;;2.75;2.75;;;;;;;;5075814;28;45550;-69
2023/06/28 07:41:38;;;;;;;;;3.00;3.00;;;;;;;;5091570;27;46223;-69
2023/06/28 07:44:03;;;;;;;;;2.50;2.50;;;;;;;;5075685;28;45513;-68
2023/06/28 07:46:29;;;;;;;;;3.00;2.00;;;;;;;;5075322;28;45358;-68
2023/06/28 07:48:56;;;;;;;;;2.00;2.00;;;;;;;;5075694;28;45320;-69
2023/06/28 07:51:21;;;;;;;;;2.00;2.00;;;;;;;;5075557;28;46225;-69
2023/06/28 07:53:46;;;;;;;;;2.50;2.50;;;;;;;;5057435;28;45826;-68
2023/06/28 07:56:12;;;;;;;;;2.00;2.00;;;;;;;;5075274;28;45518;-69
2023/06/28 07:58:37;;;;;;;;;3.25;2.00;;;;;;;;5075693;27;45452;-69
2023/06/28 08:01:02;;;;;;;;;3.50;2.25;;;;;;;;5075298;28;46290;-68
2023/06/28 08:03:28;;;;;;;;;2.50;2.50;;;;;;;;5075536;28;45361;-69
2023/06/28 08:05:53;;;;;;;;;1.75;1.75;;;;;;;;5075952;28;45351;-69
2023/06/28 08:08:18;;;;;;;;;6.00;3.75;;;;;;;;5057538;28;45381;-69
2023/06/28 08:10:43;;;;;;;;;3.00;2.50;;;;;;;;5075749;28;45433;-69
2023/06/28 08:13:08;;;;;;;;;3.25;2.00;;;;;;;;5075618;28;45522;-69
2023/06/28 08:15:36;;;;;;;;;2.00;2.00;;;;;;;;5075413;28;45371;-69
2023/06/28 08:18:02;;;;;;;;;3.00;2.00;;;;;;;;5075312;28;45526;-68
2023/06/28 08:20:28;;;;;;;;;3.00;3.00;;;;;;;;5075142;28;45351;-69
2023/06/28 08:22:53;;;;;;;;;3.25;3.00;;;;;;;;5074931;28;45344;-69
2023/06/28 08:25:18;;;;;;;;;1.75;1.75;;;;;;;;5074862;28;45479;-69
2023/06/28 08:27:43;;;;;;;;;4.00;3.25;;;;;;;;5074642;27;45332;-69
2023/06/28 08:30:09;;;;;;;;;6.00;3.50;;;;;;;;5074444;28;45912;-69
2023/06/28 08:32:35;;;;;;;;;4.25;4.25;;;;;;;;5074331;28;45319;-69
2023/06/28 08:35:02;;;;;;;;;2.75;2.50;;;;;;;;5075176;27;45422;-69
2023/06/28 08:37:30;;;;;;;;;4.25;2.25;;;;;;;;5074488;28;45445;-69
2023/06/28 08:39:55;;;;;;;;;3.00;3.00;;;;;;;;5074562;28;45442;-68
2023/06/28 08:42:20;;;;;;;;;6.00;3.00;;;;;;;;5077518;28;45353;-68
2023/06/28 08:44:48;;;;;;;;;4.00;3.00;;;;;;;;5078368;27;45499;-69
2023/06/28 08:47:13;;;;;;;;;3.00;3.00;;;;;;;;5077929;28;45510;-69
2023/06/28 08:49:39;;;;;;;;;3.00;3.00;;;;;;;;5077632;28;45445;-68
2023/06/28 08:52:05;;;;;;;;;4.00;2.25;;;;;;;;5077726;27;45456;-69
2023/06/28 08:54:31;;;;;;;;;2.75;2.75;;;;;;;;5077820;27;45407;-69
2023/06/28 08:56:57;;;;;;;;;2.00;2.00;;;;;;;;5059650;28;45289;-68
2023/06/28 08:59:22;;;;;;;;;3.75;3.00;;;;;;;;5077209;27;45446;-69
2023/06/28 09:01:48;;;;;;;;;3.00;2.25;;;;;;;;5077777;28;45462;-68
2023/06/28 09:04:13;;;;;;;;;0.00;0.00;;;;;;;;5077741;27;45292;-68
2023/06/28 09:06:38;;;;;;;;;3.25;3.25;;;;;;;;5077295;27;45381;-68
2023/06/28 09:09:04;;;;;;;;;3.00;3.00;;;;;;;;5077737;27;45446;-68
2023/06/28 09:11:29;;;;;;;;;3.50;2.75;;;;;;;;5059323;28;45979;-68
2023/06/28 09:13:55;;;;;;;;;2.75;0.00;;;;;;;;5077787;28;45416;-69
2023/06/28 09:16:22;;;;;;;;;5.00;4.50;;;;;;;;5077594;28;45347;-68
2023/06/28 09:18:47;;;;;;;;;2.75;2.75;;;;;;;;5077011;28;45961;-68
2023/06/28 09:21:23;;;;;;;;;6.25;3.25;;;;;;;;5076956;28;45352;-68
2023/06/28 09:23:48;;;;;;;;;5.00;4.00;;;;;;;;5076959;28;45495;-68
2023/06/28 09:26:13;;;;;;;;;4.25;3.25;;;;;;;;5076872;27;45486;-68
2023/06/28 09:28:39;;;;;;;;;4.00;2.75;;;;;;;;5077201;28;45506;-68
2023/06/28 09:31:05;;;;;;;;;7.00;5.75;;;;;;;;5059506;28;45414;-68
2023/06/28 09:33:30;;;;;;;;;5.00;4.00;;;;;;;;5077895;28;45453;-68
2023/06/28 09:35:56;;;;;;;;;5.50;5.00;;;;;;;;5077367;28;45332;-69
2023/06/28 09:38:22;;;;;;;;;6.25;5.50;;;;;;;;5077368;28;47094;-69
2023/06/28 09:40:55;;;;;;;;;5.75;3.25;;;;;;;;5077408;27;45339;-69
2023/06/28 09:43:20;;;;;;;;;4.75;4.25;;;;;;;;5077373;28;45913;-69
2023/06/28 09:45:47;;;;;;;;;5.25;4.75;;;;;;;;5077838;27;45571;-68
2023/06/28 09:48:12;;;;;;;;;5.00;5.00;;;;;;;;5077094;27;46310;-67
2023/06/28 09:50:37;;;;;;;;;4.50;4.50;;;;;;;;5058524;28;45474;-67
2023/06/28 09:53:13;;;;;;;;;7.00;5.75;;;;;;;;5077009;28;45512;-67
2023/06/28 09:55:39;;;;;;;;;6.25;5.25;;;;;;;;5076114;28;45424;-67
2023/06/28 09:58:07;;;;;;;;;9.00;6.75;;;;;;;;5075818;27;46523;-67
2023/06/28 10:00:33;;;;;;;;;5.25;5.25;;;;;;;;5077068;28;45290;-67
2023/06/28 10:03:00;;;;;;;;;7.00;5.25;;;;;;;;5071877;27;45936;-68
2023/06/28 10:05:26;;;;;;;;;4.50;4.25;;;;;;;;5077395;27;45636;-67
2023/06/28 10:07:52;;;;;;;;;5.75;5.50;;;;;;;;5076140;27;45967;-68
2023/06/28 10:10:18;;;;;;;;;8.50;7.00;;;;;;;;5080537;27;45446;-68
2023/06/28 10:12:44;;;;;;;;;6.75;5.00;;;;;;;;5073571;27;45523;-67
2023/06/28 10:15:12;;;;;;;;;5.75;5.75;;;;;;;;5084380;27;45327;-67
2023/06/28 10:17:37;;;;;;;;;5.75;5.75;;;;;;;;5092646;27;46153;-67
2023/06/28 10:20:04;;;;;;;;;6.00;6.00;;;;;;;;5079271;27;45462;-67
2023/06/28 10:22:30;;;;;;;;;5.00;5.00;;;;;;;;5089944;27;45516;-67
2023/06/28 10:24:56;;;;;;;;;9.25;6.75;;;;;;;;5085785;27;45533;-68
2023/06/28 10:27:22;;;;;;;;;5.75;4.75;;;;;;;;5062534;28;45445;-68
2023/06/28 10:29:49;;;;;;;;;6.00;6.00;;;;;;;;5092246;27;45573;-68
2023/06/28 10:32:14;;;;;;;;;6.00;6.00;;;;;;;;5080120;27;45490;-67
2023/06/28 10:34:40;;;;;;;;;7.00;7.00;;;;;;;;5086996;27;45292;-67
2023/06/28 10:37:05;;;;;;;;;8.50;7.50;;;;;;;;5086934;27;45505;-67
2023/06/28 10:39:33;;;;;;;;;7.25;7.00;;;;;;;;5080252;27;45560;-67
2023/06/28 10:41:58;;;;;;;;;6.25;5.00;;;;;;;;5073126;27;45486;-67
2023/06/28 10:44:23;;;;;;;;;9.25;7.00;;;;;;;;5081210;27;45387;-67
2023/06/28 10:47:07;;;;;;;;;8.50;7.25;;;;;;;;5086590;27;45558;-68
2023/06/28 10:49:33;;;;;;;;;8.00;6.25;;;;;;;;5073612;27;45454;-67
2023/06/28 10:51:59;;;;;;;;;10.00;7.50;;;;;;;;5078829;27;45446;-68
2023/06/28 10:54:25;;;;;;;;;7.75;6.25;;;;;;;;5089777;27;45548;-67
2023/06/28 10:56:51;;;;;;;;;8.50;8.50;;;;;;;;5084903;27;46237;-68
2023/06/28 10:59:16;;;;;;;;;8.25;8.25;;;;;;;;5082666;27;45383;-67
2023/06/28 11:01:48;;;;;;;;;9.25;7.50;;;;;;;;5092822;27;45457;-67
2023/06/28 11:04:16;;;;;;;;;9.50;9.50;;;;;;;;5090878;27;45536;-66
2023/06/28 11:06:42;;;;;;;;;9.00;8.00;;;;;;;;5065454;27;47675;-67
2023/06/28 11:09:17;;;;;;;;;9.00;9.00;;;;;;;;5084021;27;45321;-69
2023/06/28 11:11:51;;;;;;;;;10.75;10.50;;;;;;;;5088222;27;45449;-69
2023/06/28 11:14:19;;;;;;;;;10.25;10.25;;;;;;;;5091128;27;45323;-70
2023/06/28 11:16:46;;;;;;;;;10.75;9.50;;;;;;;;5083796;27;46202;-66
2023/06/28 11:19:14;;;;;;;;;13.50;12.75;;;;;;;;5082799;27;45371;-67
2023/06/28 11:21:40;;;;;;;;;12.25;10.75;;;;;;;;5075017;28;45627;-68
2023/06/28 11:24:05;;;;;;;;;8.00;6.50;;;;;;;;5075318;28;45506;-68
2023/06/28 11:26:32;;;;;;;;;13.00;10.50;;;;;;;;5075847;28;45455;-68
2023/06/28 11:28:57;;;;;;;;;8.50;8.25;;;;;;;;5075532;27;46191;-67
2023/06/28 11:31:41;;;;;;;;;12.25;11.00;;;;;;;;5078319;27;45466;-68
2023/06/28 11:34:09;;;;;;;;;14.00;11.25;;;;;;;;5072892;27;45715;-68
2023/06/28 11:36:35;;;;;;;;;16.25;13.00;;;;;;;;5074145;27;45472;-68
2023/06/28 11:39:01;;;;;;;;;11.75;9.00;;;;;;;;5066736;28;45431;-69
2023/06/28 11:41:26;;;;;;;;;10.25;10.25;;;;;;;;5079934;27;45488;-67
2023/06/28 11:43:51;;;;;;;;;9.50;8.25;;;;;;;;5086953;27;45447;-68
2023/06/28 11:46:21;;;;;;;;;14.25;13.50;;;;;;;;5087675;27;45511;-67
2023/06/28 11:48:47;;;;;;;;;10.25;10.25;;;;;;;;5078937;27;45442;-67
2023/06/28 11:51:13;;;;;;;;;10.25;10.25;;;;;;;;5091933;27;45348;-67
2023/06/28 11:53:38;;;;;;;;;10.75;9.00;;;;;;;;5081785;27;45704;-67
2023/06/28 11:56:03;;;;;;;;;12.50;11.00;;;;;;;;5084632;27;45740;-67
2023/06/28 11:58:37;;;;;;;;;9.75;9.75;;;;;;;;5089084;27;45389;-68
2023/06/28 12:01:04;;;;;;;;;10.50;8.75;;;;;;;;5078391;27;45504;-67
2023/06/28 12:03:31;;;;;;;;;10.25;8.75;;;;;;;;5089872;27;45496;-68
2023/06/28 12:05:57;;;;;;;;;10.50;9.25;;;;;;;;5084342;27;45749;-68
2023/06/28 12:08:22;;;;;;;;;11.00;10.50;;;;;;;;5081831;27;45467;-67
2023/06/28 12:10:47;;;;;;;;;12.25;10.75;;;;;;;;5073749;27;45411;-68
2023/06/28 12:13:19;;;;;;;;;9.00;9.00;;;;;;;;5074774;27;45435;-67
2023/06/28 12:15:45;;;;;;;;;10.50;9.50;;;;;;;;5076929;27;46002;-68
2023/06/28 12:18:10;;;;;;;;;15.50;14.50;;;;;;;;5056044;27;45502;-70
2023/06/28 12:20:35;;;;;;;;;9.00;9.00;;;;;;;;5080029;27;45561;-69
2023/06/28 12:23:00;;;;;;;;;13.00;11.50;;;;;;;;5078270;27;45410;-68
2023/06/28 12:25:30;;;;;;;;;8.25;8.25;;;;;;;;5090574;27;45628;-68
2023/06/28 12:28:02;;;;;;;;;10.25;9.50;;;;;;;;5088935;27;45518;-68
2023/06/28 12:30:28;;;;;;;;;11.00;10.00;;;;;;;;5091965;27;45414;-68
2023/06/28 12:32:56;;;;;;;;;10.75;9.75;;;;;;;;5079515;27;45299;-68
2023/06/28 12:35:24;;;;;;;;;8.25;8.25;;;;;;;;5097635;27;45412;-68
2023/06/28 12:37:55;;;;;;;;;15.00;11.00;;;;;;;;5088896;27;45823;-68
2023/06/28 12:40:24;;;;;;;;;11.75;11.75;;;;;;;;5091376;27;45331;-68
2023/06/28 12:43:06;;;;;;;;;15.25;12.25;;;;;;;;5080893;27;45919;-67
2023/06/28 12:45:31;;;;;;;;;8.25;8.25;;;;;;;;5078033;27;46300;-67
2023/06/28 12:47:57;;;;;;;;;12.00;10.00;;;;;;;;5087813;27;45722;-68
2023/06/28 12:50:22;;;;;;;;;12.50;11.50;;;;;;;;5090713;27;45808;-67
2023/06/28 12:52:47;;;;;;;;;12.25;9.75;;;;;;;;5080924;27;45662;-67
2023/06/28 12:55:12;;;;;;;;;9.00;9.00;;;;;;;;5110152;27;45886;-67
2023/06/28 12:57:37;;;;;;;;;9.50;9.50;;;;;;;;5100141;27;45730;-68
2023/06/28 13:00:03;;;;;;;;;11.00;9.25;;;;;;;;5068743;28;45389;-67
2023/06/28 13:02:28;;;;;;;;;13.75;10.50;;;;;;;;5090989;27;45407;-67
2023/06/28 13:04:53;;;;;;;;;15.25;11.75;;;;;;;;5093800;27;45412;-67
2023/06/28 13:07:18;;;;;;;;;14.75;12.00;;;;;;;;5081363;27;45503;-67
2023/06/28 13:09:43;;;;;;;;;9.75;8.75;;;;;;;;5072088;28;45504;-67
2023/06/28 13:12:09;;;;;;;;;11.25;11.00;;;;;;;;5079961;27;45541;-67
2023/06/28 13:14:34;;;;;;;;;8.00;7.00;;;;;;;;5092228;27;46010;-68
2023/06/28 13:16:59;;;;;;;;;11.00;10.00;;;;;;;;5080058;27;45456;-68
2023/06/28 13:19:25;;;;;;;;;15.75;10.50;;;;;;;;5092880;27;45375;-68
2023/06/28 13:21:53;;;;;;;;;8.25;8.25;;;;;;;;5085422;27;45512;-68
2023/06/28 13:24:24;;;;;;;;;11.50;8.50;;;;;;;;5084115;27;47171;-68
2023/06/28 13:26:51;;;;;;;;;9.00;7.75;;;;;;;;5093518;27;45402;-68
2023/06/28 13:29:18;;;;;;;;;10.00;10.00;;;;;;;;5077219;28;45356;-68
2023/06/28 13:31:43;;;;;;;;;9.75;8.75;;;;;;;;5087517;27;45260;-68
2023/06/28 13:34:08;;;;;;;;;13.25;9.25;;;;;;;;5085786;27;45299;-68
2023/06/28 13:36:34;;;;;;;;;8.00;7.00;;;;;;;;5073593;27;45343;-68
2023/06/28 13:38:59;;;;;;;;;10.50;10.25;;;;;;;;5080747;27;45437;-68
2023/06/28 13:41:24;;;;;;;;;10.50;9.25;;;;;;;;5108406;27;45329;-68
2023/06/28 13:43:49;;;;;;;;;14.75;14.25;;;;;;;;5085023;27;46455;-68
2023/06/28 13:46:15;;;;;;;;;13.75;10.50;;;;;;;;5084868;27;45467;-69
2023/06/28 13:48:40;;;;;;;;;10.00;10.00;;;;;;;;5092515;27;45261;-68
2023/06/28 13:51:05;;;;;;;;;13.00;12.00;;;;;;;;5080470;27;45507;-68
2023/06/28 13:53:30;;;;;;;;;13.25;11.00;;;;;;;;5096119;27;46335;-69
2023/06/28 13:55:58;;;;;;;;;12.75;10.25;;;;;;;;5103475;27;45364;-68
2023/06/28 13:58:23;;;;;;;;;11.25;11.25;;;;;;;;5090510;27;45442;-69
2023/06/28 14:00:49;;;;;;;;;14.00;11.75;;;;;;;;5080091;27;45491;-69
2023/06/28 14:03:14;;;;;;;;;10.75;10.75;;;;;;;;5093051;27;46441;-68
2023/06/28 14:05:39;;;;;;;;;10.25;9.25;;;;;;;;5096784;27;45424;-69
2023/06/28 14:08:04;;;;;;;;;11.00;9.25;;;;;;;;5086304;27;45459;-69
2023/06/28 14:10:29;;;;;;;;;9.50;8.25;;;;;;;;5091019;27;45441;-68
2023/06/28 14:12:55;;;;;;;;;11.50;10.25;;;;;;;;5079660;27;45610;-68
2023/06/28 14:15:21;;;;;;;;;11.50;9.75;;;;;;;;5091744;27;45359;-68
2023/06/28 14:17:47;;;;;;;;;8.00;7.75;;;;;;;;5083152;27;45549;-68
2023/06/28 14:20:12;;;;;;;;;8.00;8.00;;;;;;;;5084084;27;45514;-68
2023/06/28 14:22:37;;;;;;;;;10.00;9.00;;;;;;;;5090384;27;45466;-68
2023/06/28 14:25:04;;;;;;;;;8.50;8.50;;;;;;;;5078900;27;45626;-68
2023/06/28 14:27:29;;;;;;;;;15.75;12.75;;;;;;;;5090253;27;45542;-68
2023/06/28 14:29:54;;;;;;;;;10.25;8.50;;;;;;;;5066738;27;45403;-68